LFRB/BES METAR and TAF weather

Enter ICAO airport designator
Station Type Date Time Source
LFRB METAR 2022/07/01 02:00 UTC NOAA

LFRB 010200Z AUTO 23005KT CAVOK 09/08 Q1018 TEMPO 4000 BR BKN014


Station Type Date Time Source
LFRB Decoded METAR 2022/07/01 02:00 UTC NOAA

Brest, France (LFRB) 48-27N 004-25W 103M
Jun 30, 2022 - 10:00 PM EDT / 2022.07.01 0200 UTC
Wind: from the SW (230 degrees) at 6 MPH (5 KT):0
Visibility: greater than 7 mile(s):0
Temperature: 48 F (9 C)
Dew Point: 46 F (8 C)
Relative Humidity: 93%
Pressure (altimeter): 30.06 in. Hg (1018 hPa)
ob: LFRB 010200Z AUTO 23005KT CAVOK 09/08 Q1018 TEMPO 4000 BR BKN014
cycle: 2

Station Type Date Time Source
LFRB TAF 2022/06/30 18:22 UTC NOAA

TAF LFRB 301700Z 3018/0124 26010KT 9999 SCT040
TEMPO 3018/0110 -SHRA BKN014
BECMG 3021/3024 VRB05KT PROB30
TEMPO 0100/0106 4000 BR
BECMG 0108/0110 23010KT
BECMG 0122/0124 VRB04KT 4000 BR

Example: see airport list